Time;durP1;ratioP1;P1;durP2;ratioP2;P2;SDS_P1;SDS_P2;PMS_P1;PMS_P2;Temp;Humidity;BMP_temperature;BMP_pressure;BME280_temperature;BME280_humidity;BME280_pressure;Samples;Min_cycle;Max_cycle;Signal;HPM_P1;HPM_P2
2023/08/20 00:00:28;;;;;;;65.28;40.20;;;19.80;99.90;;;;;;5075514;28;20033;-73
2023/08/20 00:03:01;;;;;;;71.43;42.88;;;19.80;99.90;;;;;;5075246;28;20450;-72
2023/08/20 00:05:27;;;;;;;57.30;38.83;;;19.70;99.90;;;;;;5075436;28;20028;-72
2023/08/20 00:07:52;;;;;;;61.92;41.28;;;19.70;99.90;;;;;;5075235;28;20374;-73
2023/08/20 00:10:18;;;;;;;55.47;36.92;;;19.70;99.90;;;;;;5074906;28;20036;-72
2023/08/20 00:12:43;;;;;;;53.67;36.33;;;19.60;99.90;;;;;;5075466;28;20035;-72
2023/08/20 00:15:09;;;;;;;58.13;38.63;;;19.60;99.90;;;;;;5075203;28;20032;-72
2023/08/20 00:17:37;;;;;;;64.95;38.80;;;19.60;99.90;;;;;;5075107;28;20059;-72
2023/08/20 00:20:09;;;;;;;62.47;40.80;;;19.50;99.90;;;;;;5075072;28;20025;-72
2023/08/20 00:22:35;;;;;;;62.78;37.03;;;19.50;99.90;;;;;;5074631;28;20032;-73
2023/08/20 00:25:03;;;;;;;65.82;38.50;;;19.50;99.90;;;;;;5074525;28;20355;-72
2023/08/20 00:27:28;;;;;;;61.13;39.33;;;19.50;99.90;;;;;;5074992;28;20557;-72
2023/08/20 00:29:54;;;;;;;70.85;39.88;;;19.40;99.90;;;;;;5074766;28;20064;-72
2023/08/20 00:32:19;;;;;;;71.72;43.55;;;19.40;99.90;;;;;;5074565;28;20367;-72
2023/08/20 00:34:45;;;;;;;65.05;40.47;;;19.40;99.90;;;;;;5075074;28;20370;-72
2023/08/20 00:37:12;;;;;;;75.13;47.45;;;19.40;99.90;;;;;;5073911;28;20040;-72
2023/08/20 00:39:37;;;;;;;75.80;45.03;;;19.40;99.90;;;;;;5073983;28;20474;-72
2023/08/20 00:42:04;;;;;;;58.30;39.13;;;19.40;99.90;;;;;;5074256;28;20020;-72
2023/08/20 00:44:30;;;;;;;66.38;42.72;;;19.40;99.90;;;;;;5074874;28;20383;-72
2023/08/20 00:46:56;;;;;;;55.88;38.75;;;19.40;99.90;;;;;;5074539;28;20040;-72
2023/08/20 00:49:22;;;;;;;52.08;34.40;;;19.40;99.90;;;;;;5074637;28;20466;-72
2023/08/20 00:51:49;;;;;;;45.15;30.77;;;19.30;99.90;;;;;;5074815;28;20369;-72
2023/08/20 00:54:15;;;;;;;43.90;31.50;;;19.30;99.90;;;;;;5074557;28;20177;-72
2023/08/20 00:56:40;;;;;;;68.25;39.97;;;19.20;99.90;;;;;;5074050;28;20104;-72
2023/08/20 00:59:06;;;;;;;52.78;34.33;;;19.20;99.90;;;;;;5074669;28;20402;-72
2023/08/20 01:01:32;;;;;;;47.25;30.17;;;19.20;99.90;;;;;;5074158;28;20025;-72
2023/08/20 01:03:57;;;;;;;45.92;29.98;;;19.10;99.90;;;;;;5073285;28;20020;-72
2023/08/20 01:06:49;;;;;;;45.53;30.20;;;19.10;99.90;;;;;;5074228;28;20033;-72
2023/08/20 01:09:42;;;;;;;48.05;30.88;;;19.10;99.90;;;;;;5073937;28;20039;-72
2023/08/20 01:12:09;;;;;;;44.65;28.95;;;19.00;99.90;;;;;;5073742;28;20021;-73
2023/08/20 01:14:35;;;;;;;47.47;31.42;;;19.10;99.90;;;;;;5074433;28;20432;-72
2023/08/20 01:17:01;;;;;;;45.13;30.20;;;19.10;99.90;;;;;;5074322;28;20058;-72
2023/08/20 01:19:27;;;;;;;57.90;35.70;;;19.10;99.90;;;;;;5074323;28;20020;-72
2023/08/20 01:22:32;;;;;;;58.60;36.20;;;19.10;99.90;;;;;;5074020;28;20024;-72
2023/08/20 01:28:29;;;;;;;89.18;48.13;;;19.10;99.90;;;;;;5071358;28;20383;-72
2023/08/20 01:30:57;;;;;;;71.72;43.63;;;19.20;99.90;;;;;;5071633;28;20028;-71
2023/08/20 01:33:24;;;;;;;70.68;41.67;;;19.30;99.90;;;;;;5071243;28;20059;-71
2023/08/20 01:35:51;;;;;;;72.03;42.20;;;19.30;99.90;;;;;;5070778;28;20032;-71
2023/08/20 01:38:16;;;;;;;76.30;42.40;;;19.10;99.90;;;;;;5070487;28;20493;-71
2023/08/20 01:40:42;;;;;;;67.47;41.85;;;19.00;99.90;;;;;;5070677;28;20025;-70
2023/08/20 01:43:08;;;;;;;62.03;39.55;;;19.00;99.90;;;;;;5071062;28;20438;-71
2023/08/20 01:45:33;;;;;;;65.85;39.67;;;18.90;99.90;;;;;;5070785;28;20028;-70
2023/08/20 01:47:59;;;;;;;63.92;38.53;;;18.90;99.90;;;;;;5070567;28;20078;-70
2023/08/20 01:50:24;;;;;;;61.45;38.15;;;18.90;99.90;;;;;;5070652;28;20025;-70
2023/08/20 01:52:50;;;;;;;63.45;39.10;;;18.90;99.90;;;;;;5070119;28;20025;-70
2023/08/20 01:55:16;;;;;;;85.32;47.03;;;18.90;99.90;;;;;;5070780;28;20025;-70
2023/08/20 01:57:41;;;;;;;62.17;39.72;;;19.00;99.90;;;;;;5070301;28;20028;-71
2023/08/20 02:00:08;;;;;;;61.53;37.60;;;19.00;99.90;;;;;;5070938;28;20029;-72
2023/08/20 02:02:34;;;;;;;65.32;39.35;;;18.90;99.90;;;;;;5070229;28;20025;-73
2023/08/20 02:05:00;;;;;;;58.85;35.78;;;18.80;99.90;;;;;;5070632;28;20029;-73
2023/08/20 02:07:25;;;;;;;53.58;35.20;;;18.80;99.90;;;;;;5070067;28;20024;-71
2023/08/20 02:09:51;;;;;;;51.65;32.40;;;18.80;99.90;;;;;;5070747;28;20028;-71
2023/08/20 02:12:18;;;;;;;58.38;35.35;;;18.80;99.90;;;;;;5070764;28;20031;-72
2023/08/20 02:14:43;;;;;;;58.45;36.30;;;18.80;99.90;;;;;;5070404;28;20470;-71
2023/08/20 02:17:09;;;;;;;51.75;32.42;;;18.90;99.90;;;;;;5070629;28;20035;-71
2023/08/20 02:19:35;;;;;;;56.95;34.60;;;19.00;99.90;;;;;;5070066;28;20119;-71
2023/08/20 02:22:00;;;;;;;62.00;36.63;;;19.10;99.90;;;;;;5069897;28;20039;-71
2023/08/20 02:24:26;;;;;;;59.35;36.80;;;19.10;99.90;;;;;;5070548;28;20351;-73
2023/08/20 02:26:52;;;;;;;62.45;36.30;;;19.10;99.90;;;;;;5069362;28;20101;-71
2023/08/20 02:29:17;;;;;;;61.85;39.50;;;19.20;99.90;;;;;;5069414;28;20406;-71
2023/08/20 02:31:43;;;;;;;58.45;37.20;;;19.30;99.90;;;;;;5070297;28;20059;-72
2023/08/20 02:34:09;;;;;;;71.95;42.30;;;19.30;99.90;;;;;;5070200;28;20028;-71
2023/08/20 02:36:34;;;;;;;69.97;43.50;;;19.40;99.90;;;;;;5070203;28;20115;-70
2023/08/20 02:39:00;;;;;;;73.03;45.70;;;19.40;99.90;;;;;;5058753;28;20044;-70
2023/08/20 02:41:26;;;;;;;60.63;39.15;;;19.40;99.90;;;;;;5056954;28;20033;-71
2023/08/20 02:43:51;;;;;;;69.63;40.70;;;19.50;99.90;;;;;;5056460;28;20369;-70
2023/08/20 02:46:17;;;;;;;72.05;44.22;;;19.50;99.90;;;;;;5056420;28;20437;-71
2023/08/20 02:48:42;;;;;;;80.70;47.70;;;19.60;99.90;;;;;;5056115;28;20032;-71
2023/08/20 02:51:08;;;;;;;79.95;49.17;;;19.60;99.90;;;;;;5056669;28;20053;-71
2023/08/20 02:53:33;;;;;;;73.75;45.42;;;19.60;99.90;;;;;;5056010;28;20021;-71
2023/08/20 02:55:59;;;;;;;78.97;50.67;;;19.60;99.90;;;;;;5056433;28;20068;-71
2023/08/20 02:58:25;;;;;;;81.22;48.85;;;19.60;99.90;;;;;;5056622;28;20033;-71
2023/08/20 03:00:50;;;;;;;83.63;50.58;;;19.60;99.90;;;;;;5056538;28;20044;-71
2023/08/20 03:03:16;;;;;;;85.63;49.15;;;19.60;99.90;;;;;;5056344;28;20035;-72
2023/08/20 03:05:43;;;;;;;101.50;57.00;;;19.50;99.90;;;;;;5055735;28;20474;-72
2023/08/20 03:08:09;;;;;;;99.40;56.58;;;19.60;99.90;;;;;;5056502;28;20055;-75
2023/08/20 03:10:35;;;;;;;97.82;56.03;;;19.70;99.90;;;;;;5055502;28;20028;-72
2023/08/20 03:13:02;;;;;;;106.40;56.17;;;19.70;99.90;;;;;;5056050;28;20029;-72
2023/08/20 03:15:28;;;;;;;98.22;56.58;;;19.70;99.90;;;;;;5055710;28;20028;-72
2023/08/20 03:17:54;;;;;;;97.55;55.67;;;19.70;99.90;;;;;;5055851;28;20070;-72
2023/08/20 03:20:20;;;;;;;92.45;55.35;;;19.70;99.90;;;;;;5056169;28;20037;-72
2023/08/20 03:22:45;;;;;;;108.25;60.10;;;19.80;99.90;;;;;;5055376;28;20025;-72
2023/08/20 03:25:11;;;;;;;119.28;62.42;;;19.80;99.90;;;;;;5055439;28;20079;-72
2023/08/20 03:27:36;;;;;;;116.63;62.65;;;19.80;99.90;;;;;;5054956;28;20514;-72
2023/08/20 03:30:03;;;;;;;97.35;54.38;;;19.80;99.90;;;;;;5055635;28;20521;-72
2023/08/20 03:32:29;;;;;;;109.07;58.38;;;19.80;99.90;;;;;;5056000;28;20021;-72
2023/08/20 03:34:55;;;;;;;106.32;59.55;;;19.80;99.90;;;;;;5055607;28;20024;-72
2023/08/20 03:37:22;;;;;;;110.53;59.63;;;19.80;99.90;;;;;;5055457;28;20060;-72
2023/08/20 03:39:48;;;;;;;129.82;64.53;;;19.70;99.90;;;;;;5055573;28;20039;-72
2023/08/20 03:42:14;;;;;;;120.38;64.40;;;19.70;99.90;;;;;;5055759;28;20111;-72
2023/08/20 03:44:39;;;;;;;135.88;66.03;;;19.70;99.90;;;;;;5055430;28;20052;-72
2023/08/20 03:47:05;;;;;;;121.72;61.78;;;19.60;99.90;;;;;;5054682;28;20029;-72
2023/08/20 03:49:30;;;;;;;107.07;57.90;;;19.60;99.90;;;;;;5054618;28;20033;-72
2023/08/20 03:51:56;;;;;;;92.05;51.40;;;19.50;99.90;;;;;;5054966;28;20021;-72
2023/08/20 03:54:22;;;;;;;90.55;49.83;;;19.50;99.90;;;;;;5055516;28;20032;-75
2023/08/20 03:56:47;;;;;;;94.07;52.67;;;19.40;99.90;;;;;;5055501;28;20040;-71
2023/08/20 03:59:13;;;;;;;97.57;53.67;;;19.40;99.90;;;;;;5054778;28;20027;-71
2023/08/20 04:01:39;;;;;;;96.88;50.47;;;19.30;99.90;;;;;;5055063;28;20138;-71
2023/08/20 04:04:04;;;;;;;96.05;52.38;;;19.30;99.90;;;;;;5054977;28;20490;-71
2023/08/20 04:06:30;;;;;;;107.82;55.85;;;19.20;99.90;;;;;;5055209;28;20033;-71
2023/08/20 04:08:56;;;;;;;96.97;50.58;;;19.20;99.90;;;;;;5055269;28;20451;-71
2023/08/20 04:11:21;;;;;;;92.22;52.08;;;19.20;99.90;;;;;;5055243;28;20482;-71
2023/08/20 04:13:47;;;;;;;87.00;47.88;;;19.20;99.90;;;;;;5054491;28;20463;-71
2023/08/20 04:16:13;;;;;;;105.78;55.88;;;19.20;99.90;;;;;;5054850;28;20037;-71
2023/08/20 04:18:39;;;;;;;98.57;52.20;;;19.20;99.90;;;;;;5054840;28;20131;-71
2023/08/20 04:21:05;;;;;;;88.45;47.78;;;19.20;99.90;;;;;;5054379;28;20051;-71
2023/08/20 04:23:31;;;;;;;76.63;43.75;;;19.20;99.90;;;;;;5054789;28;20041;-71
2023/08/20 04:25:56;;;;;;;81.63;45.42;;;19.20;99.90;;;;;;5053685;28;20144;-71
2023/08/20 04:28:22;;;;;;;80.30;44.65;;;19.20;99.90;;;;;;5054720;28;20112;-72
2023/08/20 04:30:49;;;;;;;104.68;53.53;;;19.20;99.90;;;;;;5054815;28;20028;-71
2023/08/20 04:33:14;;;;;;;99.55;52.58;;;19.10;99.90;;;;;;5054921;28;20470;-72
2023/08/20 04:35:40;;;;;;;108.45;55.33;;;19.00;99.90;;;;;;5053816;28;20071;-72
2023/08/20 04:38:06;;;;;;;94.43;49.17;;;19.10;99.90;;;;;;5054672;28;20037;-73
2023/08/20 04:40:31;;;;;;;111.88;56.38;;;19.10;99.90;;;;;;5054461;28;20025;-72
2023/08/20 04:42:57;;;;;;;103.63;52.22;;;19.10;99.90;;;;;;5054579;28;20048;-71
2023/08/20 04:45:22;;;;;;;131.27;61.95;;;19.10;99.90;;;;;;5054629;28;20138;-71
2023/08/20 04:47:48;;;;;;;127.55;59.20;;;19.20;99.90;;;;;;5054031;28;20033;-72
2023/08/20 04:50:14;;;;;;;141.43;63.97;;;19.20;99.90;;;;;;5054178;28;20028;-72
2023/08/20 04:52:40;;;;;;;149.25;65.75;;;19.30;99.90;;;;;;5053799;28;20143;-72
2023/08/20 04:55:07;;;;;;;123.43;59.58;;;19.20;99.90;;;;;;5054497;28;20036;-72
2023/08/20 04:57:33;;;;;;;137.70;62.95;;;19.20;99.90;;;;;;5054358;28;20025;-72
2023/08/20 04:59:58;;;;;;;132.10;62.80;;;19.20;99.90;;;;;;5053783;28;20039;-72
2023/08/20 05:02:24;;;;;;;122.63;58.33;;;19.20;99.90;;;;;;5053789;28;20029;-72
2023/08/20 05:04:50;;;;;;;113.72;56.80;;;19.20;99.90;;;;;;5053990;28;20056;-73
2023/08/20 05:07:15;;;;;;;125.45;62.03;;;19.50;99.90;;;;;;5054039;28;20027;-72
2023/08/20 05:09:41;;;;;;;113.25;56.20;;;19.60;99.90;;;;;;5054239;28;20394;-72
2023/08/20 05:12:07;;;;;;;131.45;62.97;;;19.70;99.90;;;;;;5054247;28;20375;-72
2023/08/20 05:14:33;;;;;;;130.55;64.00;;;19.80;99.90;;;;;;5054244;28;20520;-73
2023/08/20 05:16:58;;;;;;;105.95;57.70;;;19.90;99.90;;;;;;5053746;28;20021;-72
2023/08/20 05:19:24;;;;;;;105.32;54.88;;;19.90;99.90;;;;;;5053833;28;20044;-73
2023/08/20 05:21:50;;;;;;;98.97;54.00;;;20.00;99.90;;;;;;5054192;28;20040;-72
2023/08/20 05:24:15;;;;;;;108.10;58.58;;;20.00;99.90;;;;;;5053822;28;20467;-72
2023/08/20 05:26:41;;;;;;;98.22;52.40;;;20.20;99.90;;;;;;5053088;28;20045;-72
2023/08/20 05:29:06;;;;;;;85.45;51.85;;;20.20;99.90;;;;;;5053800;28;20021;-72
2023/08/20 05:31:33;;;;;;;89.32;50.53;;;20.20;99.90;;;;;;5053751;28;20378;-72
2023/08/20 05:33:58;;;;;;;86.97;50.80;;;20.40;99.90;;;;;;5054065;28;20111;-72
2023/08/20 05:36:24;;;;;;;85.28;52.30;;;20.60;99.90;;;;;;5053024;28;20598;-72
2023/08/20 05:38:50;;;;;;;80.88;50.33;;;20.80;99.90;;;;;;5053595;28;20055;-72
2023/08/20 05:41:15;;;;;;;75.75;47.53;;;21.00;99.90;;;;;;5053944;28;20039;-71
2023/08/20 05:43:41;;;;;;;66.80;42.55;;;21.30;99.90;;;;;;5053566;28;20025;-72
2023/08/20 05:46:07;;;;;;;57.17;40.42;;;21.60;99.90;;;;;;5053429;28;20033;-72
2023/08/20 05:48:32;;;;;;;50.05;36.55;;;22.00;99.90;;;;;;5053456;28;20455;-72
2023/08/20 05:50:58;;;;;;;48.70;34.47;;;22.20;99.90;;;;;;5053844;28;20418;-72
2023/08/20 05:53:23;;;;;;;53.65;38.42;;;22.10;99.90;;;;;;5053420;28;20021;-72
2023/08/20 05:55:49;;;;;;;51.25;36.75;;;21.90;99.90;;;;;;5053564;28;20025;-72
2023/08/20 05:58:15;;;;;;;44.67;32.70;;;21.80;99.90;;;;;;5052977;28;20025;-72
2023/08/20 06:00:41;;;;;;;57.40;39.65;;;21.80;99.90;;;;;;5052868;28;20068;-72
2023/08/20 06:03:09;;;;;;;58.90;41.10;;;21.60;99.90;;;;;;5053479;28;20021;-72
2023/08/20 06:05:34;;;;;;;64.30;43.22;;;21.50;99.90;;;;;;5053160;28;20491;-73
2023/08/20 06:08:00;;;;;;;70.07;44.10;;;21.40;99.90;;;;;;5052818;28;20060;-74
2023/08/20 06:10:26;;;;;;;64.15;44.20;;;21.20;99.90;;;;;;5053265;28;20047;-72
2023/08/20 06:12:52;;;;;;;69.35;46.63;;;21.20;99.90;;;;;;5054115;28;20500;-72
2023/08/20 06:15:17;;;;;;;68.45;47.13;;;21.20;99.90;;;;;;5057423;28;20371;-72
2023/08/20 06:17:43;;;;;;;74.30;44.83;;;21.20;99.90;;;;;;5057172;28;20055;-72
2023/08/20 06:20:11;;;;;;;74.18;46.92;;;21.20;99.90;;;;;;5057420;28;20393;-72
2023/08/20 06:22:37;;;;;;;74.30;46.65;;;21.20;99.90;;;;;;5056638;28;20033;-72
2023/08/20 06:25:03;;;;;;;75.43;47.58;;;;;;;;;;5056752;28;20032;-72
2023/08/20 06:27:29;;;;;;;82.45;50.67;;;;;;;;;;5055929;28;20403;-72
2023/08/20 06:29:55;;;;;;;83.40;52.45;;;;;;;;;;5056701;28;20025;-72
2023/08/20 06:32:21;;;;;;;91.53;54.08;;;;;;;;;;5056790;28;20032;-72
2023/08/20 06:34:47;;;;;;;93.63;55.92;;;21.20;99.90;;;;;;5056181;28;20033;-72
2023/08/20 06:37:13;;;;;;;95.15;56.45;;;21.10;99.90;;;;;;5056786;28;20117;-72
2023/08/20 06:39:38;;;;;;;91.05;55.80;;;21.10;99.90;;;;;;5056418;28;20086;-71
2023/08/20 06:42:04;;;;;;;92.63;55.65;;;21.10;99.90;;;;;;5056484;28;20086;-71
2023/08/20 06:44:30;;;;;;;85.97;53.95;;;21.20;99.90;;;;;;5056900;28;20094;-71
2023/08/20 06:46:55;;;;;;;91.88;55.65;;;21.30;99.90;;;;;;5056382;28;20028;-72
2023/08/20 06:49:21;;;;;;;87.43;54.17;;;21.40;99.90;;;;;;5055816;28;20052;-72
2023/08/20 06:51:46;;;;;;;80.82;51.85;;;21.60;99.90;;;;;;5056734;28;20033;-73
2023/08/20 06:54:14;;;;;;;75.05;48.22;;;21.70;99.90;;;;;;5056443;28;20040;-72
2023/08/20 06:56:39;;;;;;;76.40;49.65;;;21.70;99.90;;;;;;5056394;28;20079;-71
2023/08/20 06:59:05;;;;;;;76.55;49.45;;;21.80;99.90;;;;;;5056362;28;20033;-72
2023/08/20 07:01:30;;;;;;;72.25;46.80;;;21.90;99.90;;;;;;5056253;28;20033;-72
2023/08/20 07:03:56;;;;;;;74.70;48.08;;;22.00;99.90;;;;;;5056159;28;20029;-72
2023/08/20 07:06:22;;;;;;;71.50;47.85;;;22.10;99.90;;;;;;5055487;28;20478;-72
2023/08/20 07:08:47;;;;;;;69.38;45.95;;;22.30;99.90;;;;;;5056463;28;20037;-72
2023/08/20 07:11:13;;;;;;;68.13;48.63;;;22.40;99.90;;;;;;5056046;28;20079;-72
2023/08/20 07:13:38;;;;;;;75.07;48.67;;;22.50;99.90;;;;;;5055645;28;20033;-72
2023/08/20 07:16:04;;;;;;;69.75;46.25;;;22.80;99.90;;;;;;5055903;28;20029;-72
2023/08/20 07:18:29;;;;;;;63.63;44.13;;;23.00;99.90;;;;;;5055398;28;20116;-72
2023/08/20 07:20:57;;;;;;;65.30;45.35;;;23.10;99.90;;;;;;5056198;28;20033;-72
2023/08/20 07:23:23;;;;;;;68.85;47.13;;;23.10;99.90;;;;;;5056217;28;20471;-72
2023/08/20 07:25:51;;;;;;;63.40;44.22;;;23.10;99.90;;;;;;5055112;28;20074;-72
2023/08/20 07:28:26;;;;;;;63.00;44.70;;;23.20;99.90;;;;;;5055886;28;20104;-74
2023/08/20 07:30:52;;;;;;;63.90;44.63;;;23.20;99.90;;;;;;5055972;28;20475;-73
2023/08/20 07:33:18;;;;;;;66.40;44.80;;;23.20;99.90;;;;;;5056238;28;20490;-74
2023/08/20 07:35:43;;;;;;;64.03;42.97;;;23.60;99.90;;;;;;5055898;28;20029;-76
2023/08/20 07:38:09;;;;;;;57.95;41.30;;;23.80;99.90;;;;;;5055672;28;20029;-72
2023/08/20 07:40:34;;;;;;;65.90;44.60;;;24.00;99.90;;;;;;5055548;28;20044;-73
2023/08/20 07:43:00;;;;;;;62.08;44.15;;;24.00;99.90;;;;;;5056014;28;20079;-72
2023/08/20 07:45:26;;;;;;;61.83;42.03;;;24.00;99.90;;;;;;5054789;28;20029;-72
2023/08/20 07:47:51;;;;;;;59.45;43.10;;;24.50;94.40;;;;;;5054955;28;20036;-72
2023/08/20 07:50:17;;;;;;;60.78;42.42;;;24.70;65.30;;;;;;5054887;28;20053;-72
2023/08/20 07:52:43;;;;;;;59.08;42.88;;;25.10;39.30;;;;;;5055198;28;20021;-72
2023/08/20 07:55:08;;;;;;;55.50;40.08;;;26.40;1.00;;;;;;5054973;28;20467;-72
2023/08/20 07:57:34;;;;;;;52.08;39.25;;;27.50;1.00;;;;;;5054823;28;20107;-72
2023/08/20 07:59:59;;;;;;;50.35;39.13;;;28.50;99.90;;;;;;5055213;28;20033;-72
2023/08/20 08:02:25;;;;;;;51.03;38.58;;;29.60;99.90;;;;;;5054779;28;20025;-72
2023/08/20 08:04:51;;;;;;;48.33;37.30;;;29.10;99.90;;;;;;5055136;28;20029;-72
2023/08/20 08:07:16;;;;;;;48.47;37.63;;;28.10;99.90;;;;;;5054148;28;20387;-72
2023/08/20 08:09:42;;;;;;;49.60;38.10;;;27.60;99.90;;;;;;5054868;28;20110;-72
2023/08/20 08:12:08;;;;;;;51.03;38.67;;;27.20;1.00;;;;;;5055195;28;20029;-72
2023/08/20 08:14:33;;;;;;;50.70;39.70;;;28.10;99.90;;;;;;5054904;28;20025;-72
2023/08/20 08:16:59;;;;;;;48.97;37.38;;;28.90;99.90;;;;;;5054847;28;20536;-72
2023/08/20 08:19:24;;;;;;;44.40;36.13;;;29.70;99.90;;;;;;5054379;28;20116;-72
2023/08/20 08:21:50;;;;;;;44.20;35.92;;;30.70;99.90;;;;;;5055002;28;20040;-72
2023/08/20 08:24:16;;;;;;;44.38;34.50;;;31.30;1.00;;;;;;5054359;28;20039;-76
2023/08/20 08:26:42;;;;;;;41.30;34.45;;;30.80;20.70;;;;;;5054189;28;20051;-72
2023/08/20 08:29:08;;;;;;;42.38;33.42;;;31.30;99.90;;;;;;5054502;28;20425;-72
2023/08/20 08:31:35;;;;;;;44.47;35.90;;;31.80;1.00;;;;;;5054820;28;20029;-72
2023/08/20 08:34:03;;;;;;;40.55;34.65;;;31.40;99.90;;;;;;5054809;28;20056;-72
2023/08/20 08:36:29;;;;;;;44.90;34.65;;;31.50;91.30;;;;;;5054237;28;20033;-72
2023/08/20 08:38:54;;;;;;;42.28;34.95;;;31.10;99.90;;;;;;5054408;28;20496;-72
2023/08/20 08:41:23;;;;;;;45.22;36.75;;;31.00;1.00;;;;;;5054787;28;20037;-72
2023/08/20 08:43:49;;;;;;;44.03;34.90;;;31.00;99.90;;;;;;5054168;28;20028;-72
2023/08/20 08:46:15;;;;;;;44.28;33.58;;;31.50;1.00;;;;;;5054633;28;20476;-72
2023/08/20 08:48:42;;;;;;;43.45;34.95;;;32.40;99.90;;;;;;5054606;28;20508;-72
2023/08/20 08:51:09;;;;;;;41.53;33.28;;;31.60;99.90;;;;;;5054491;28;20067;-72
2023/08/20 08:53:35;;;;;;;36.63;31.65;;;32.20;99.90;;;;;;5053832;28;20407;-72
2023/08/20 08:56:02;;;;;;;38.15;32.35;;;32.70;99.90;;;;;;5054475;28;20051;-72
2023/08/20 08:58:28;;;;;;;34.15;29.88;;;33.50;99.90;;;;;;5054152;28;20418;-72
2023/08/20 09:00:54;;;;;;;33.72;28.65;;;33.20;12.20;;;;;;5053953;28;20467;-72
2023/08/20 09:03:20;;;;;;;33.83;28.92;;;33.10;19.80;;;;;;5053912;28;20471;-72
2023/08/20 09:05:49;;;;;;;35.80;30.30;;;33.60;99.90;;;;;;5054344;28;20027;-72
2023/08/20 09:08:27;;;;;;;38.50;32.10;;;33.10;79.40;;;;;;5054037;28;20488;-71
2023/08/20 09:10:53;;;;;;;36.58;31.13;;;32.40;99.90;;;;;;5054032;28;20032;-72
2023/08/20 09:13:41;;;;;;;31.33;26.23;;;31.50;1.00;;;;;;5054190;28;20454;-71
2023/08/20 09:16:09;;;;;;;33.55;28.55;;;31.60;1.00;;;;;;5054162;28;20477;-71
2023/08/20 09:18:44;;;;;;;32.10;27.63;;;32.80;1.00;;;;;;5053661;28;20052;-72
2023/08/20 09:21:12;;;;;;;30.40;26.98;;;32.10;99.90;;;;;;5053142;28;20018;-71
2023/08/20 09:23:38;;;;;;;32.10;26.63;;;32.00;99.90;;;;;;5054194;28;20021;-72
2023/08/20 09:26:05;;;;;;;34.33;29.85;;;31.80;65.90;;;;;;5053575;28;20044;-72
2023/08/20 09:28:42;;;;;;;36.53;29.83;;;30.80;1.00;;;;;;5053506;28;20475;-77
2023/08/20 09:31:08;;;;;;;34.28;29.95;;;30.90;95.90;;;;;;5054043;28;20021;-71
2023/08/20 09:33:34;;;;;;;33.60;29.52;;;30.10;99.90;;;;;;5053724;28;20112;-71
2023/08/20 09:35:59;;;;;;;29.45;25.63;;;30.00;99.90;;;;;;5053668;28;20470;-71
2023/08/20 09:38:25;;;;;;;31.23;25.80;;;30.30;99.90;;;;;;5053483;28;20032;-71
2023/08/20 09:40:56;;;;;;;31.00;27.70;;;30.50;99.90;;;;;;5053886;28;20463;-71
2023/08/20 09:43:28;;;;;;;23.20;20.80;;;30.60;1.00;;;;;;5053675;28;20028;-71
2023/08/20 09:45:56;;;;;;;24.98;22.27;;;30.50;99.90;;;;;;5052909;28;20472;-71
2023/08/20 09:48:23;;;;;;;25.67;21.40;;;30.60;1.00;;;;;;5055332;28;20029;-71
2023/08/20 09:50:51;;;;;;;24.40;19.17;;;30.80;1.00;;;;;;5057549;28;20374;-71
2023/08/20 09:56:15;;;;;;;25.30;21.85;;;31.20;99.90;;;;;;5111470;27;20376;-70
2023/08/20 09:58:41;;;;;;;20.63;18.33;;;32.60;99.90;;;;;;5111468;28;20393;-72
2023/08/20 10:01:07;;;;;;;21.35;19.05;;;32.50;99.90;;;;;;5111747;28;20027;-71
2023/08/20 10:03:33;;;;;;;15.70;14.10;;;32.60;99.90;;;;;;5112138;28;20544;-71
2023/08/20 10:06:01;;;;;;;15.98;12.40;;;32.60;1.00;;;;;;5111249;28;20136;-71
2023/08/20 10:08:27;;;;;;;15.43;12.13;;;32.50;1.00;;;;;;5111580;28;20028;-71
2023/08/20 10:10:53;;;;;;;13.00;11.77;;;32.20;1.00;;;;;;5111384;28;20111;-70
2023/08/20 10:13:19;;;;;;;13.30;10.38;;;32.00;1.00;;;;;;5111275;28;20066;-70
2023/08/20 10:15:46;;;;;;;8.45;6.47;;;31.00;58.90;;;;;;5111566;28;20024;-71
2023/08/20 10:18:12;;;;;;;6.20;5.20;;;31.10;1.00;;;;;;5111368;28;20387;-71
2023/08/20 10:20:40;;;;;;;9.57;7.38;;;30.60;1.00;;;;;;5111028;28;20100;-70
2023/08/20 10:23:06;;;;;;;8.52;7.68;;;30.30;1.00;;;;;;5110977;28;20104;-70
2023/08/20 10:25:40;;;;;;;11.23;10.02;;;30.70;99.90;;;;;;5111333;28;20031;-71
2023/08/20 10:28:24;;;;;;;11.10;8.80;;;31.10;99.90;;;;;;5111640;28;20031;-70
2023/08/20 10:31:11;;;;;;;8.88;7.97;;;31.60;99.90;;;;;;5111026;28;20023;-71
2023/08/20 10:33:50;;;;;;;8.48;7.57;;;32.00;90.00;;;;;;5110309;27;20019;-70
2023/08/20 10:36:22;;;;;;;10.82;8.07;;;32.40;68.00;;;;;;5110999;28;20020;-70
2023/08/20 10:38:49;;;;;;;12.82;8.93;;;32.90;99.90;;;;;;5111338;28;20099;-70
2023/08/20 10:41:16;;;;;;;11.20;9.77;;;33.00;1.00;;;;;;5110710;28;20020;-70
2023/08/20 10:43:49;;;;;;;15.80;10.82;;;33.00;1.00;;;;;;5110874;28;20027;-70
2023/08/20 10:46:25;;;;;;;11.15;10.00;;;32.40;1.00;;;;;;5111262;28;20024;-70
2023/08/20 10:48:53;;;;;;;11.48;10.32;;;32.50;99.90;;;;;;5110902;28;20032;-71
2023/08/20 10:51:41;;;;;;;10.57;9.48;;;32.20;1.00;;;;;;5110880;28;20402;-71
2023/08/20 10:54:09;;;;;;;13.05;10.50;;;32.30;99.90;;;;;;5109974;28;20057;-71
2023/08/20 10:56:45;;;;;;;11.90;10.45;;;31.40;99.90;;;;;;5110616;27;20056;-71
2023/08/20 10:59:27;;;;;;;11.35;10.23;;;29.90;99.90;;;;;;5110711;28;20046;-70
2023/08/20 11:01:54;;;;;;;10.75;9.65;;;29.50;1.00;;;;;;5110525;28;20028;-70
2023/08/20 11:04:22;;;;;;;12.23;10.25;;;29.30;85.70;;;;;;5110044;28;20032;-71
2023/08/20 11:06:55;;;;;;;12.40;10.27;;;28.70;99.90;;;;;;5100874;28;20027;-71
2023/08/20 11:09:22;;;;;;;12.25;10.73;;;28.40;99.90;;;;;;5096983;28;20424;-70
2023/08/20 11:11:48;;;;;;;11.93;10.57;;;28.50;99.90;;;;;;5096173;28;20115;-70
2023/08/20 11:14:15;;;;;;;14.23;10.75;;;28.60;99.90;;;;;;5096619;28;20119;-70
2023/08/20 11:16:43;;;;;;;13.18;11.52;;;29.00;99.90;;;;;;5096758;28;20174;-70
2023/08/20 11:19:09;;;;;;;13.35;11.32;;;28.90;99.90;;;;;;5096815;28;20035;-70
2023/08/20 11:21:37;;;;;;;11.48;10.27;;;28.70;99.90;;;;;;5096581;28;20016;-70
2023/08/20 11:24:03;;;;;;;12.90;10.75;;;28.90;99.90;;;;;;5096885;28;20024;-70
2023/08/20 11:26:29;;;;;;;14.60;11.80;;;28.90;1.00;;;;;;5096501;28;20378;-70
2023/08/20 11:28:55;;;;;;;13.30;10.50;;;28.50;1.00;;;;;;5095943;28;20039;-70
2023/08/20 11:31:21;;;;;;;14.90;11.75;;;28.60;1.00;;;;;;5095979;28;20032;-71
2023/08/20 11:33:48;;;;;;;11.98;10.77;;;29.00;99.90;;;;;;5096448;28;20020;-71
2023/08/20 11:36:17;;;;;;;11.73;10.52;;;29.30;13.40;;;;;;5096575;28;20020;-70
2023/08/20 11:38:48;;;;;;;10.95;9.77;;;29.30;1.00;;;;;;5096626;28;20025;-71
2023/08/20 11:41:14;;;;;;;12.15;10.95;;;29.30;1.00;;;;;;5095751;28;20017;-70
2023/08/20 11:43:41;;;;;;;12.80;9.43;;;29.20;1.00;;;;;;5096135;28;20374;-70
2023/08/20 11:46:14;;;;;;;10.60;8.50;;;29.40;99.90;;;;;;5096051;28;20081;-70
2023/08/20 11:51:38;;;;;;;10.18;8.15;;;29.30;1.00;;;;;;5111972;27;20377;-71
2023/08/20 11:54:07;;;;;;;10.07;8.57;;;29.20;1.00;;;;;;5111728;28;20104;-71
2023/08/20 11:56:34;;;;;;;11.85;8.65;;;29.00;99.90;;;;;;5111823;28;20073;-71
2023/08/20 11:59:00;;;;;;;11.10;8.65;;;29.10;99.90;;;;;;5111822;28;20538;-71
2023/08/20 12:01:30;;;;;;;8.65;7.75;;;28.80;99.90;;;;;;5111467;28;20496;-70
2023/08/20 12:04:03;;;;;;;10.90;8.40;;;28.90;1.00;;;;;;5111688;28;20496;-70
2023/08/20 12:06:30;;;;;;;9.30;7.97;;;29.60;99.90;;;;;;5111911;28;20035;-71
2023/08/20 12:08:57;;;;;;;9.77;8.02;;;30.00;99.90;;;;;;5111171;28;20080;-71
2023/08/20 12:11:26;;;;;;;9.32;7.95;;;30.30;99.90;;;;;;5111278;28;20130;-71
2023/08/20 12:13:51;;;;;;;9.43;7.53;;;30.80;50.10;;;;;;5110808;28;20073;-71
2023/08/20 12:16:18;;;;;;;11.07;8.23;;;30.80;99.90;;;;;;5111301;28;20055;-71
2023/08/20 12:18:46;;;;;;;7.80;7.00;;;30.10;99.90;;;;;;5111027;28;20031;-71
2023/08/20 12:21:11;;;;;;;8.10;6.68;;;30.00;1.00;;;;;;5111213;28;20073;-71
2023/08/20 12:23:37;;;;;;;9.05;7.50;;;29.50;99.90;;;;;;5111638;28;20435;-71
2023/08/20 12:26:03;;;;;;;8.82;7.32;;;29.30;1.00;;;;;;5111155;28;20110;-71
2023/08/20 12:28:29;;;;;;;11.10;7.53;;;28.90;1.00;;;;;;5111425;28;20110;-71
2023/08/20 12:30:55;;;;;;;8.77;7.30;;;28.90;99.90;;;;;;5111178;28;20161;-71
2023/08/20 12:33:20;;;;;;;7.85;7.05;;;28.90;1.00;;;;;;5110715;28;20023;-71
2023/08/20 12:35:46;;;;;;;9.15;6.82;;;28.90;1.00;;;;;;5111302;28;20158;-71
2023/08/20 12:38:12;;;;;;;7.95;7.15;;;28.90;1.00;;;;;;5111245;28;20016;-70